createdAt,value
2023-02-03T00:01:44.146Z,3.16
2023-02-03T00:06:40.774Z,3.18
2023-02-03T00:11:40.780Z,3.01
2023-02-03T00:16:37.443Z,3.28
2023-02-03T00:21:34.093Z,3.29
2023-02-03T00:26:33.316Z,3.34
2023-02-03T00:31:31.124Z,3.13
2023-02-03T00:36:27.939Z,3.01
2023-02-03T00:41:31.092Z,2.94
2023-02-03T00:46:27.630Z,2.96
2023-02-03T00:51:24.884Z,2.98
2023-02-03T00:56:24.383Z,3.19
2023-02-03T01:01:21.067Z,3.18
2023-02-03T01:06:20.216Z,3.18
2023-02-03T01:11:18.563Z,3.26
2023-02-03T01:16:16.411Z,3.29
2023-02-03T01:21:16.278Z,3.46
2023-02-03T01:26:14.709Z,3.54
2023-02-03T01:31:13.460Z,3.19
2023-02-03T01:36:10.319Z,3.23
2023-02-03T01:41:07.810Z,2.94
2023-02-03T01:46:07.074Z,3.25
2023-02-03T01:51:04.866Z,3.19
2023-02-03T01:56:04.337Z,3.33
2023-02-03T02:01:01.177Z,3.37
2023-02-03T02:06:00.502Z,3.29
2023-02-03T02:11:00.648Z,3.44
2023-02-03T02:16:00.177Z,3.51
2023-02-03T02:21:10.791Z,3.60
2023-02-03T02:26:31.249Z,3.56
2023-02-03T02:31:40.381Z,3.43
2023-02-03T02:36:43.209Z,3.53
2023-02-03T02:41:43.150Z,3.72
2023-02-03T02:46:42.986Z,3.78
2023-02-03T02:51:43.234Z,3.74
2023-02-03T02:56:40.765Z,3.86
2023-02-03T03:01:40.649Z,3.69
2023-02-03T03:06:42.632Z,3.68
2023-02-03T03:11:41.666Z,3.63
2023-02-03T03:16:43.177Z,3.58
2023-02-03T03:21:42.659Z,3.58
2023-02-03T03:26:42.331Z,3.39
2023-02-03T03:31:39.730Z,3.58
2023-02-03T03:36:40.609Z,3.59
2023-02-03T03:41:41.401Z,3.73
2023-02-03T03:46:41.623Z,3.63
2023-02-03T03:51:40.141Z,3.85
2023-02-03T03:56:39.509Z,3.79
2023-02-03T04:01:38.414Z,3.78
2023-02-03T04:06:36.186Z,3.80
2023-02-03T04:11:50.879Z,3.68
2023-02-03T04:16:48.199Z,3.83
2023-02-03T04:21:44.825Z,3.74
2023-02-03T04:26:41.398Z,3.66
2023-02-03T04:31:38.324Z,3.77
2023-02-03T04:36:35.868Z,3.70
2023-02-03T04:41:32.436Z,3.63
2023-02-03T04:46:28.983Z,3.76
2023-02-03T04:51:25.583Z,3.68
2023-02-03T04:56:22.811Z,3.85
2023-02-03T05:01:19.443Z,3.69
2023-02-03T05:06:21.965Z,3.60
2023-02-03T05:11:18.641Z,3.71
2023-02-03T05:16:15.909Z,3.72
2023-02-03T05:21:12.526Z,3.62
2023-02-03T05:26:09.114Z,3.73
2023-02-03T05:31:05.999Z,3.67
2023-02-03T05:36:03.750Z,3.73
2023-02-03T05:41:18.517Z,3.82
2023-02-03T05:46:15.178Z,3.68
2023-02-03T05:51:12.481Z,3.49
2023-02-03T05:56:09.113Z,3.59
2023-02-03T06:01:05.922Z,3.52
2023-02-03T06:06:02.937Z,3.69
2023-02-03T06:11:00.373Z,3.73
2023-02-03T06:15:57.163Z,3.79
2023-02-03T06:20:54.133Z,3.87
2023-02-03T06:25:52.452Z,3.90
2023-02-03T06:30:50.943Z,3.99
2023-02-03T06:35:47.870Z,4.04
2023-02-03T06:40:46.153Z,3.92
2023-02-03T06:45:45.363Z,3.89
2023-02-03T06:50:42.667Z,3.89
2023-02-03T06:55:40.776Z,3.90
2023-02-03T07:00:37.535Z,3.83
2023-02-03T07:05:35.515Z,3.80
2023-02-03T07:10:33.060Z,3.89
2023-02-03T07:15:29.843Z,3.60
2023-02-03T07:20:28.483Z,3.75
2023-02-03T07:25:25.770Z,3.78
2023-02-03T07:30:23.400Z,3.58
2023-02-03T07:35:20.015Z,3.67
2023-02-03T07:40:17.179Z,3.63
2023-02-03T07:45:15.154Z,3.81
2023-02-03T07:50:13.039Z,3.85
2023-02-03T07:55:15.217Z,3.92
2023-02-03T08:00:13.446Z,4.02
2023-02-03T08:05:10.518Z,4.05
2023-02-03T08:10:14.912Z,4.05
2023-02-03T08:15:11.712Z,4.02
2023-02-03T08:20:08.833Z,4.17
2023-02-03T08:25:06.864Z,4.07
2023-02-03T08:30:05.351Z,4.31
2023-02-03T08:35:02.129Z,4.38
2023-02-03T08:39:59.952Z,4.31
2023-02-03T08:44:56.914Z,4.50
2023-02-03T08:50:00.657Z,4.72
2023-02-03T08:55:00.369Z,4.63
2023-02-03T08:59:57.218Z,4.77
2023-02-03T09:04:55.179Z,4.74
2023-02-03T09:09:53.332Z,4.79
2023-02-03T09:14:50.478Z,4.90
2023-02-03T09:19:50.402Z,5.08
2023-02-03T09:24:51.197Z,5.14
2023-02-03T09:29:48.250Z,4.98
2023-02-03T09:34:50.707Z,4.95
2023-02-03T09:39:48.709Z,5.09
2023-02-03T09:44:48.971Z,5.32
2023-02-03T09:49:47.848Z,5.52
2023-02-03T09:54:50.265Z,5.50
2023-02-03T09:59:50.646Z,5.65
2023-02-03T10:04:52.986Z,5.82
2023-02-03T10:09:57.188Z,5.93
2023-02-03T10:15:00.883Z,6.08
2023-02-03T10:20:02.804Z,6.09
2023-02-03T10:25:03.464Z,6.01
2023-02-03T10:30:03.539Z,6.03
2023-02-03T10:35:17.023Z,6.14
2023-02-03T10:40:15.762Z,6.26
2023-02-03T10:45:13.331Z,6.37
2023-02-03T10:50:18.424Z,6.51
2023-02-03T10:55:31.730Z,6.63
2023-02-03T11:00:31.253Z,6.72
2023-02-03T11:05:28.152Z,6.82
2023-02-03T11:10:29.897Z,7.06
2023-02-03T11:15:27.290Z,7.24
2023-02-03T11:20:28.651Z,7.32
2023-02-03T11:25:29.229Z,7.46
2023-02-03T11:30:29.703Z,7.54
2023-02-03T11:35:28.482Z,7.66
2023-02-03T11:40:26.651Z,7.67
2023-02-03T11:45:24.961Z,7.70
2023-02-03T11:50:27.571Z,8.00
2023-02-03T11:55:34.265Z,7.87
2023-02-03T12:00:35.401Z,7.92
2023-02-03T12:05:50.177Z,8.10
2023-02-03T12:10:53.985Z,8.15
2023-02-03T12:15:58.393Z,7.98
2023-02-03T12:21:01.952Z,8.09
2023-02-03T12:26:14.788Z,8.06
2023-02-03T12:31:16.298Z,8.17
2023-02-03T12:36:15.463Z,8.06
2023-02-03T12:41:14.491Z,7.97
2023-02-03T12:46:15.203Z,7.98
2023-02-03T12:51:14.300Z,7.90
2023-02-03T12:56:16.707Z,7.82
2023-02-03T13:01:20.723Z,7.97
2023-02-03T13:06:21.004Z,7.84
2023-02-03T13:11:24.227Z,7.99
2023-02-03T13:16:26.847Z,7.89
2023-02-03T13:21:23.661Z,7.96
2023-02-03T13:26:35.967Z,7.94
2023-02-03T13:31:40.996Z,7.92
2023-02-03T13:36:55.697Z,7.92
2023-02-03T13:41:55.046Z,7.85
2023-02-03T13:46:52.412Z,7.82
2023-02-03T13:51:49.358Z,7.89
2023-02-03T13:56:54.692Z,7.60
2023-02-03T14:01:51.389Z,7.76
2023-02-03T14:07:02.841Z,7.76
2023-02-03T14:12:19.735Z,7.56
2023-02-03T14:17:35.335Z,7.47
2023-02-03T14:22:32.146Z,7.34
2023-02-03T14:27:30.906Z,7.53
2023-02-03T14:32:47.781Z,7.38
2023-02-03T14:37:53.022Z,7.43
2023-02-03T14:43:10.137Z,7.48
2023-02-03T14:48:15.891Z,7.37
2023-02-03T14:53:20.849Z,7.36
2023-02-03T14:58:23.213Z,7.02
2023-02-03T15:03:25.627Z,6.74
2023-02-03T15:08:41.321Z,6.40
2023-02-03T15:13:38.619Z,6.21
2023-02-03T15:18:47.409Z,5.97
2023-02-03T15:23:48.693Z,5.91
2023-02-03T15:28:53.989Z,5.81
2023-02-03T15:33:52.199Z,5.43
2023-02-03T15:38:50.416Z,5.29
2023-02-03T15:43:49.342Z,5.04
2023-02-03T15:48:49.733Z,4.99
2023-02-03T15:53:49.792Z,5.16
2023-02-03T15:58:46.619Z,5.02
2023-02-03T16:03:44.224Z,4.94
2023-02-03T16:08:45.751Z,4.76
2023-02-03T16:13:45.835Z,5.01
2023-02-03T16:18:50.461Z,5.24
2023-02-03T16:23:49.844Z,5.08
2023-02-03T16:29:14.336Z,5.26
2023-02-03T16:34:32.493Z,5.18
2023-02-03T16:39:48.511Z,5.19
2023-02-03T16:45:03.339Z,4.88
2023-02-03T16:50:26.449Z,5.31
2023-02-03T16:55:33.932Z,5.13
2023-02-03T17:00:30.541Z,5.03
2023-02-03T17:05:27.375Z,5.16
2023-02-03T17:10:24.079Z,5.25
2023-02-03T17:15:21.391Z,5.30
2023-02-03T17:20:18.110Z,5.04
2023-02-03T17:25:14.836Z,5.03
2023-02-03T17:30:12.355Z,5.10
2023-02-03T17:35:09.670Z,5.06
2023-02-03T17:55:51.936Z,4.89
2023-02-03T18:00:48.569Z,4.94
2023-02-03T18:05:50.524Z,4.90
2023-02-03T18:10:47.214Z,4.76
2023-02-03T18:15:43.874Z,4.77
2023-02-03T18:20:40.453Z,4.54
2023-02-03T18:25:37.800Z,4.54
2023-02-03T18:30:35.879Z,4.31
2023-02-03T18:35:32.850Z,4.44
2023-02-03T18:40:29.697Z,4.55
2023-02-03T18:45:46.042Z,4.58
2023-02-03T18:50:50.445Z,4.58
2023-02-03T18:55:47.073Z,4.62
2023-02-03T19:00:44.670Z,4.63
2023-02-03T19:05:41.943Z,4.76
2023-02-03T19:10:38.753Z,4.90
2023-02-03T19:15:51.754Z,5.00
2023-02-03T19:20:49.167Z,4.91
2023-02-03T19:25:50.079Z,4.91
2023-02-03T19:30:46.864Z,4.95
2023-02-03T19:35:46.367Z,4.87
2023-02-03T19:40:44.651Z,4.71
2023-02-03T19:45:41.760Z,4.58
2023-02-03T19:50:40.211Z,4.41
2023-02-03T19:55:36.824Z,4.32
2023-02-03T20:00:34.792Z,4.21
2023-02-03T20:05:31.618Z,4.13
2023-02-03T20:10:32.051Z,4.17
2023-02-03T20:15:28.782Z,4.21
2023-02-03T20:20:26.095Z,4.37
2023-02-03T20:25:22.798Z,3.93
2023-02-03T20:30:19.675Z,4.07
2023-02-03T20:35:18.924Z,4.04
2023-02-03T20:40:18.116Z,4.04
2023-02-03T20:45:15.222Z,3.83
2023-02-03T20:50:14.213Z,4.06
2023-02-03T20:55:12.894Z,4.03
2023-02-03T21:00:15.320Z,3.71
2023-02-03T21:05:22.850Z,3.70
2023-02-03T21:10:20.991Z,3.61
2023-02-03T21:15:19.581Z,3.69
2023-02-03T21:20:23.817Z,3.78
2023-02-03T21:25:26.183Z,3.64
2023-02-03T21:30:27.847Z,3.73
2023-02-03T21:35:25.793Z,3.76
2023-02-03T21:40:26.276Z,4.00
2023-02-03T21:45:28.281Z,3.84
2023-02-03T21:50:26.424Z,3.79
2023-02-03T21:55:23.072Z,3.86
2023-02-03T22:00:39.183Z,3.82
2023-02-03T22:05:35.742Z,3.91
2023-02-03T22:10:32.510Z,3.68
2023-02-03T22:15:29.363Z,3.65
2023-02-03T22:20:26.684Z,3.73
2023-02-03T22:25:23.228Z,3.86
2023-02-03T22:30:19.886Z,4.11
2023-02-03T22:35:16.652Z,4.02
2023-02-03T22:40:19.270Z,4.36
2023-02-03T22:45:16.218Z,4.39
2023-02-03T22:50:13.238Z,4.50
2023-02-03T22:55:12.009Z,4.52
2023-02-03T23:00:11.043Z,4.52
2023-02-03T23:05:08.762Z,4.11
2023-02-03T23:10:06.691Z,4.06
2023-02-03T23:15:04.027Z,4.32
2023-02-03T23:20:01.376Z,4.65
2023-02-03T23:24:59.652Z,4.80
2023-02-03T23:29:56.340Z,4.71
2023-02-03T23:35:11.068Z,4.63
2023-02-03T23:40:09.407Z,4.62
2023-02-03T23:45:07.714Z,4.69
2023-02-03T23:50:04.553Z,4.53
2023-02-03T23:55:02.237Z,4.41
2023-02-03T23:59:59.608Z,4.29
